sensor_id;sensor_type;location;lat;lon;timestamp;temperature;humidity
21387;DHT22;10854;45.922;6.716;2023-06-22T15:34:02;21.20;75.70
21387;DHT22;10854;45.922;6.716;2023-06-22T15:36:32;16.50;95.60
21387;DHT22;10854;45.922;6.716;2023-06-22T15:39:01;16.00;99.90
21387;DHT22;10854;45.922;6.716;2023-06-22T15:41:30;15.80;99.90
21387;DHT22;10854;45.922;6.716;2023-06-22T15:43:58;15.60;99.90
21387;DHT22;10854;45.922;6.716;2023-06-22T15:46:27;15.40;99.90
21387;DHT22;10854;45.922;6.716;2023-06-22T15:48:55;15.30;99.90
21387;DHT22;10854;45.922;6.716;2023-06-22T15:51:24;15.30;99.90
21387;DHT22;10854;45.922;6.716;2023-06-22T15:53:52;15.10;99.90
21387;DHT22;10854;45.922;6.716;2023-06-22T15:56:21;15.10;99.90
21387;DHT22;10854;45.922;6.716;2023-06-22T15:58:51;15.00;99.90
21387;DHT22;10854;45.922;6.716;2023-06-22T16:01:19;15.00;99.90
21387;DHT22;10854;45.922;6.716;2023-06-22T16:03:52;15.00;99.90
21387;DHT22;10854;45.922;6.716;2023-06-22T16:06:21;15.10;99.90
21387;DHT22;10854;45.922;6.716;2023-06-22T16:08:50;15.10;99.90
21387;DHT22;10854;45.922;6.716;2023-06-22T16:11:18;15.10;99.90
21387;DHT22;10854;45.922;6.716;2023-06-22T16:13:46;15.10;99.90
21387;DHT22;10854;45.922;6.716;2023-06-22T16:16:15;15.00;99.90
21387;DHT22;10854;45.922;6.716;2023-06-22T16:18:44;15.10;99.90
21387;DHT22;10854;45.922;6.716;2023-06-22T16:21:13;15.10;99.90
21387;DHT22;10854;45.922;6.716;2023-06-22T16:23:42;15.10;99.90
21387;DHT22;10854;45.922;6.716;2023-06-22T16:26:10;15.10;99.90
21387;DHT22;10854;45.922;6.716;2023-06-22T16:28:38;15.00;99.90
21387;DHT22;10854;45.922;6.716;2023-06-22T16:31:07;14.90;99.90
21387;DHT22;10854;45.922;6.716;2023-06-22T16:33:35;14.90;99.90
21387;DHT22;10854;45.922;6.716;2023-06-22T16:36:04;14.90;99.90
21387;DHT22;10854;45.922;6.716;2023-06-22T16:38:33;14.90;99.90
21387;DHT22;10854;45.922;6.716;2023-06-22T16:41:01;14.90;99.90
21387;DHT22;10854;45.922;6.716;2023-06-22T16:43:33;14.90;99.90
21387;DHT22;10854;45.922;6.716;2023-06-22T16:46:01;14.90;99.90
21387;DHT22;10854;45.922;6.716;2023-06-22T16:48:30;14.90;99.90
21387;DHT22;10854;45.922;6.716;2023-06-22T16:50:58;14.90;99.90
21387;DHT22;10854;45.922;6.716;2023-06-22T16:53:27;14.90;99.90
21387;DHT22;10854;45.922;6.716;2023-06-22T16:55:57;14.90;99.90
21387;DHT22;10854;45.922;6.716;2023-06-22T16:58:26;15.00;99.90
21387;DHT22;10854;45.922;6.716;2023-06-22T17:00:55;14.90;99.90
21387;DHT22;10854;45.922;6.716;2023-06-22T17:03:27;14.90;99.90
21387;DHT22;10854;45.922;6.716;2023-06-22T17:05:57;14.90;99.90
21387;DHT22;10854;45.922;6.716;2023-06-22T17:08:29;14.90;99.90
21387;DHT22;10854;45.922;6.716;2023-06-22T17:11:01;14.80;99.90
21387;DHT22;10854;45.922;6.716;2023-06-22T17:13:29;14.90;99.90
21387;DHT22;10854;45.922;6.716;2023-06-22T17:15:59;14.90;99.90
21387;DHT22;10854;45.922;6.716;2023-06-22T17:18:29;14.90;99.90
21387;DHT22;10854;45.922;6.716;2023-06-22T17:21:01;15.00;99.90
21387;DHT22;10854;45.922;6.716;2023-06-22T17:23:30;15.00;99.90
21387;DHT22;10854;45.922;6.716;2023-06-22T17:26:01;15.00;99.90
21387;DHT22;10854;45.922;6.716;2023-06-22T17:28:49;14.90;99.90
21387;DHT22;10854;45.922;6.716;2023-06-22T17:31:19;14.90;99.90
21387;DHT22;10854;45.922;6.716;2023-06-22T17:33:50;14.90;99.90
21387;DHT22;10854;45.922;6.716;2023-06-22T17:36:19;14.90;99.90
21387;DHT22;10854;45.922;6.716;2023-06-22T17:38:47;14.90;99.90
21387;DHT22;10854;45.922;6.716;2023-06-22T17:41:16;14.90;99.90
21387;DHT22;10854;45.922;6.716;2023-06-22T17:43:45;14.90;99.90
21387;DHT22;10854;45.922;6.716;2023-06-22T17:46:14;14.90;99.90
21387;DHT22;10854;45.922;6.716;2023-06-22T17:48:45;14.90;99.90
21387;DHT22;10854;45.922;6.716;2023-06-22T17:51:15;14.90;99.90
21387;DHT22;10854;45.922;6.716;2023-06-22T17:53:50;15.00;99.90
21387;DHT22;10854;45.922;6.716;2023-06-22T17:56:18;15.00;99.90
21387;DHT22;10854;45.922;6.716;2023-06-22T17:58:53;15.10;99.90
21387;DHT22;10854;45.922;6.716;2023-06-22T18:01:33;15.30;99.90
21387;DHT22;10854;45.922;6.716;2023-06-22T18:04:13;15.50;99.90
21387;DHT22;10854;45.922;6.716;2023-06-22T18:06:45;15.80;99.90
21387;DHT22;10854;45.922;6.716;2023-06-22T18:09:16;16.00;99.90
21387;DHT22;10854;45.922;6.716;2023-06-22T18:11:50;16.10;99.90
21387;DHT22;10854;45.922;6.716;2023-06-22T18:14:20;16.10;99.90
21387;DHT22;10854;45.922;6.716;2023-06-22T18:16:50;16.30;99.90
21387;DHT22;10854;45.922;6.716;2023-06-22T18:19:19;16.30;99.90
21387;DHT22;10854;45.922;6.716;2023-06-22T18:21:49;16.30;99.90
21387;DHT22;10854;45.922;6.716;2023-06-22T18:24:19;16.30;99.90
21387;DHT22;10854;45.922;6.716;2023-06-22T18:26:47;16.30;99.90
21387;DHT22;10854;45.922;6.716;2023-06-22T18:29:18;16.20;99.90
21387;DHT22;10854;45.922;6.716;2023-06-22T18:31:47;16.20;99.90
21387;DHT22;10854;45.922;6.716;2023-06-22T18:34:16;16.30;99.90
21387;DHT22;10854;45.922;6.716;2023-06-22T18:36:52;16.20;99.90
21387;DHT22;10854;45.922;6.716;2023-06-22T18:39:22;16.20;99.90
21387;DHT22;10854;45.922;6.716;2023-06-22T18:41:52;16.10;99.90
21387;DHT22;10854;45.922;6.716;2023-06-22T18:44:28;16.00;99.90
21387;DHT22;10854;45.922;6.716;2023-06-22T18:49:45;15.90;99.90
21387;DHT22;10854;45.922;6.716;2023-06-22T18:52:19;15.90;99.90
21387;DHT22;10854;45.922;6.716;2023-06-22T18:54:52;15.90;99.90
21387;DHT22;10854;45.922;6.716;2023-06-22T18:57:28;15.80;99.90
21387;DHT22;10854;45.922;6.716;2023-06-22T19:13:26;15.50;99.90
21387;DHT22;10854;45.922;6.716;2023-06-22T19:16:00;15.40;99.90
21387;DHT22;10854;45.922;6.716;2023-06-22T19:21:03;15.30;99.90
21387;DHT22;10854;45.922;6.716;2023-06-22T19:23:36;15.20;99.90
21387;DHT22;10854;45.922;6.716;2023-06-22T19:26:17;15.10;99.90
21387;DHT22;10854;45.922;6.716;2023-06-22T19:28:50;15.10;99.90
21387;DHT22;10854;45.922;6.716;2023-06-22T19:31:21;15.00;99.90
21387;DHT22;10854;45.922;6.716;2023-06-22T19:33:54;14.90;99.90
21387;DHT22;10854;45.922;6.716;2023-06-22T19:36:31;14.90;99.90
21387;DHT22;10854;45.922;6.716;2023-06-22T19:39:02;14.90;99.90
21387;DHT22;10854;45.922;6.716;2023-06-22T19:41:31;14.80;99.90
21387;DHT22;10854;45.922;6.716;2023-06-22T19:44:00;14.80;99.90
21387;DHT22;10854;45.922;6.716;2023-06-22T19:46:29;14.70;99.90
21387;DHT22;10854;45.922;6.716;2023-06-22T19:48:59;14.70;99.90
21387;DHT22;10854;45.922;6.716;2023-06-22T19:51:34;14.70;99.90
21387;DHT22;10854;45.922;6.716;2023-06-22T19:54:07;14.70;99.90
21387;DHT22;10854;45.922;6.716;2023-06-22T19:56:36;14.70;99.90
21387;DHT22;10854;45.922;6.716;2023-06-22T19:59:13;14.70;99.90
21387;DHT22;10854;45.922;6.716;2023-06-22T20:01:49;14.70;99.90
21387;DHT22;10854;45.922;6.716;2023-06-22T20:04:18;14.70;99.90
21387;DHT22;10854;45.922;6.716;2023-06-22T20:07:05;14.80;99.90
21387;DHT22;10854;45.922;6.716;2023-06-22T20:09:34;14.80;99.90
21387;DHT22;10854;45.922;6.716;2023-06-22T20:12:04;14.90;99.90
21387;DHT22;10854;45.922;6.716;2023-06-22T20:14:34;14.90;99.90
21387;DHT22;10854;45.922;6.716;2023-06-22T20:17:04;15.00;99.90
21387;DHT22;10854;45.922;6.716;2023-06-22T20:19:37;15.00;99.90
21387;DHT22;10854;45.922;6.716;2023-06-22T20:22:09;15.10;99.90
21387;DHT22;10854;45.922;6.716;2023-06-22T20:24:38;15.10;99.90
21387;DHT22;10854;45.922;6.716;2023-06-22T20:27:11;15.20;99.90
21387;DHT22;10854;45.922;6.716;2023-06-22T20:29:44;15.20;99.90
21387;DHT22;10854;45.922;6.716;2023-06-22T20:32:13;15.20;99.90
21387;DHT22;10854;45.922;6.716;2023-06-22T20:34:44;15.20;99.90
21387;DHT22;10854;45.922;6.716;2023-06-22T20:37:17;15.30;99.90
21387;DHT22;10854;45.922;6.716;2023-06-22T20:39:56;15.30;99.90
21387;DHT22;10854;45.922;6.716;2023-06-22T20:42:24;15.30;99.90
21387;DHT22;10854;45.922;6.716;2023-06-22T20:44:53;15.30;99.90
21387;DHT22;10854;45.922;6.716;2023-06-22T20:47:22;15.30;99.90
21387;DHT22;10854;45.922;6.716;2023-06-22T20:49:50;15.20;99.90
21387;DHT22;10854;45.922;6.716;2023-06-22T20:52:19;15.30;99.90
21387;DHT22;10854;45.922;6.716;2023-06-22T20:54:47;15.30;99.90
21387;DHT22;10854;45.922;6.716;2023-06-22T20:57:16;15.30;99.90
21387;DHT22;10854;45.922;6.716;2023-06-22T20:59:45;15.30;99.90
21387;DHT22;10854;45.922;6.716;2023-06-22T21:02:13;15.30;99.90
21387;DHT22;10854;45.922;6.716;2023-06-22T21:04:45;15.40;99.90
21387;DHT22;10854;45.922;6.716;2023-06-22T21:07:17;15.30;99.90
21387;DHT22;10854;45.922;6.716;2023-06-22T21:09:46;15.40;99.90
21387;DHT22;10854;45.922;6.716;2023-06-22T21:12:18;15.40;99.90
21387;DHT22;10854;45.922;6.716;2023-06-22T21:14:47;15.40;99.90
21387;DHT22;10854;45.922;6.716;2023-06-22T21:17:18;15.50;99.90
21387;DHT22;10854;45.922;6.716;2023-06-22T21:19:47;15.40;99.90
21387;DHT22;10854;45.922;6.716;2023-06-22T21:22:18;15.50;99.90
21387;DHT22;10854;45.922;6.716;2023-06-22T21:25:09;15.50;99.90
21387;DHT22;10854;45.922;6.716;2023-06-22T21:27:40;15.50;99.90
21387;DHT22;10854;45.922;6.716;2023-06-22T21:30:11;15.50;99.90
21387;DHT22;10854;45.922;6.716;2023-06-22T21:32:40;15.50;99.90
21387;DHT22;10854;45.922;6.716;2023-06-22T21:35:09;15.50;99.90
21387;DHT22;10854;45.922;6.716;2023-06-22T21:37:38;15.40;99.90
21387;DHT22;10854;45.922;6.716;2023-06-22T21:40:07;15.50;99.90
21387;DHT22;10854;45.922;6.716;2023-06-22T21:42:36;15.50;99.90
21387;DHT22;10854;45.922;6.716;2023-06-22T21:45:04;15.50;99.90
21387;DHT22;10854;45.922;6.716;2023-06-22T21:47:33;15.60;99.90
21387;DHT22;10854;45.922;6.716;2023-06-22T21:50:01;15.60;99.90
21387;DHT22;10854;45.922;6.716;2023-06-22T21:52:29;15.60;99.90
21387;DHT22;10854;45.922;6.716;2023-06-22T21:54:58;15.60;99.90
21387;DHT22;10854;45.922;6.716;2023-06-22T21:57:26;15.60;99.90
21387;DHT22;10854;45.922;6.716;2023-06-22T21:59:55;15.60;99.90
21387;DHT22;10854;45.922;6.716;2023-06-22T22:02:24;15.60;99.90
21387;DHT22;10854;45.922;6.716;2023-06-22T22:04:52;15.60;99.90
21387;DHT22;10854;45.922;6.716;2023-06-22T22:07:21;15.60;99.90
21387;DHT22;10854;45.922;6.716;2023-06-22T22:09:49;15.60;99.90
21387;DHT22;10854;45.922;6.716;2023-06-22T22:12:18;15.60;99.90
21387;DHT22;10854;45.922;6.716;2023-06-22T22:14:48;15.60;99.90
21387;DHT22;10854;45.922;6.716;2023-06-22T22:17:16;15.60;99.90
21387;DHT22;10854;45.922;6.716;2023-06-22T22:19:45;15.50;99.90
21387;DHT22;10854;45.922;6.716;2023-06-22T22:22:13;15.50;99.90
21387;DHT22;10854;45.922;6.716;2023-06-22T22:24:42;15.50;99.90
21387;DHT22;10854;45.922;6.716;2023-06-22T22:27:10;15.50;99.90
21387;DHT22;10854;45.922;6.716;2023-06-22T22:29:39;15.50;99.90
21387;DHT22;10854;45.922;6.716;2023-06-22T22:32:08;15.50;99.90
21387;DHT22;10854;45.922;6.716;2023-06-22T22:34:36;15.50;99.90
21387;DHT22;10854;45.922;6.716;2023-06-22T22:37:05;15.60;99.90
21387;DHT22;10854;45.922;6.716;2023-06-22T22:39:35;15.60;99.90
21387;DHT22;10854;45.922;6.716;2023-06-22T22:42:06;15.60;99.90
21387;DHT22;10854;45.922;6.716;2023-06-22T22:44:35;15.60;99.90
21387;DHT22;10854;45.922;6.716;2023-06-22T22:47:03;15.60;99.90
21387;DHT22;10854;45.922;6.716;2023-06-22T22:49:32;15.60;99.90
21387;DHT22;10854;45.922;6.716;2023-06-22T22:52:01;15.60;99.90
21387;DHT22;10854;45.922;6.716;2023-06-22T22:54:31;15.60;99.90
21387;DHT22;10854;45.922;6.716;2023-06-22T22:56:59;15.60;99.90
21387;DHT22;10854;45.922;6.716;2023-06-22T22:59:28;15.60;99.90
21387;DHT22;10854;45.922;6.716;2023-06-22T23:01:57;15.70;99.90
21387;DHT22;10854;45.922;6.716;2023-06-22T23:04:25;15.70;99.90
21387;DHT22;10854;45.922;6.716;2023-06-22T23:06:55;15.70;99.90
21387;DHT22;10854;45.922;6.716;2023-06-22T23:09:24;15.70;99.90
21387;DHT22;10854;45.922;6.716;2023-06-22T23:11:52;15.70;99.90
21387;DHT22;10854;45.922;6.716;2023-06-22T23:14:21;15.70;99.90
21387;DHT22;10854;45.922;6.716;2023-06-22T23:16:49;15.60;99.90
21387;DHT22;10854;45.922;6.716;2023-06-22T23:19:18;15.60;99.90
21387;DHT22;10854;45.922;6.716;2023-06-22T23:21:46;15.60;99.90
21387;DHT22;10854;45.922;6.716;2023-06-22T23:24:16;15.50;99.90
21387;DHT22;10854;45.922;6.716;2023-06-22T23:26:46;15.50;99.90
21387;DHT22;10854;45.922;6.716;2023-06-22T23:29:15;15.60;99.90
21387;DHT22;10854;45.922;6.716;2023-06-22T23:31:44;15.50;99.90
21387;DHT22;10854;45.922;6.716;2023-06-22T23:34:14;15.50;99.90
21387;DHT22;10854;45.922;6.716;2023-06-22T23:36:43;15.60;99.90
21387;DHT22;10854;45.922;6.716;2023-06-22T23:39:13;15.50;99.90
21387;DHT22;10854;45.922;6.716;2023-06-22T23:41:41;15.50;99.90
21387;DHT22;10854;45.922;6.716;2023-06-22T23:44:10;15.50;99.90
21387;DHT22;10854;45.922;6.716;2023-06-22T23:46:40;15.50;99.90
21387;DHT22;10854;45.922;6.716;2023-06-22T23:49:09;15.50;99.90
21387;DHT22;10854;45.922;6.716;2023-06-22T23:51:37;15.50;99.90
21387;DHT22;10854;45.922;6.716;2023-06-22T23:54:06;15.50;99.90
21387;DHT22;10854;45.922;6.716;2023-06-22T23:56:34;15.50;99.90
21387;DHT22;10854;45.922;6.716;2023-06-22T23:59:06;15.50;99.90
